S Coffeyville, Oklahoma
Current Conditions -  °F | °C
As of 11:52 PM on Friday 28 Nov 2014 (Local Time) from KCFV Reporting Station
Clear Clear  
Wind Chill: 54°   Ceiling: Unl
Heat Index: 54°   Visibility: 10mi
Dew Point: 46°   Wind: 13mph
Humidity: 75%   Direction: 180°S
Pressure: 29.8"   Gusts: 21mph
Location:  36.9837°N, 95.6065°W
Report Text: KCFV 290552Z AUTO 18011G18KT 10SM CLR 12/08 A2980 RMK AO2 SLP092 T01220078 10133 20122 401780006 58014
Loading
Personal Weather Stations






























Interactive Weather Map New forecast layout! Learn more

10-Day Weather Forecast

Advertisements
Track Severe Weather on mobile